This is the latest recevied weather packets stored in our database for station/object WW3TRG. If no packets are shown the sender has not sent any weather packets the latest 10 day(s).
| Time | Temp. | Humidity | Pressure | Rain* | Wind** | Luminosity | Snow |
|---|---|---|---|---|---|---|---|
| 1777562214 | 12.78° C | 83% | 1007.6 hPa | 0 mm | - | 141 W/m² | - |
| 1777561912 | 12.78° C | 84% | 1007.7 hPa | 0 mm | - | 97 W/m² | - |
| 1777561609 | 12.78° C | 83% | 1007.7 hPa | 0 mm | - | 81 W/m² | - |
| 1777561305 | 13.33° C | 82% | 1007.8 hPa | 0 mm | - | 115 W/m² | - |
| 1777561005 | 13.89° C | 81% | 1007.5 hPa | 0 mm | - | 184 W/m² | - |
| 1777560700 | 13.89° C | 83% | 1007.4 hPa | 0 mm | - | 379 W/m² | - |
| 1777560398 | 13.89° C | 83% | 1007.4 hPa | 0 mm | - | 294 W/m² | - |
| 1777560096 | 13.33° C | 85% | 1007.4 hPa | 0 mm | - | 340 W/m² | - |
| 1777559792 | 12.78° C | 88% | 1007.1 hPa | 0 mm | - | 823 W/m² | - |
| 1777559489 | 12.22° C | 89% | 1007.4 hPa | 0 mm | - | 139 W/m² | - |
| 1777559186 | 12.22° C | 89% | 1007.4 hPa | 0 mm | - | 132 W/m² | - |
| 1777558885 | 12.78° C | 91% | 1007.1 hPa | 0 mm | - | 105 W/m² | - |
| 1777558581 | 12.78° C | 90% | 1006.9 hPa | 0 mm | - | 164 W/m² | - |
| 1777558277 | 12.78° C | 89% | 1006.9 hPa | 0 mm | - | 92 W/m² | - |
| 1777557974 | 12.78° C | 88% | 1006.9 hPa | 0 mm | - | 339 W/m² | - |
| 1777557671 | 13.33° C | 94% | 1006.8 hPa | 0 mm | - | 405 W/m² | - |
| 1777557367 | 12.22° C | 99% | 1006.8 hPa | 0 mm | - | 620 W/m² | - |
| 1777557063 | 11.11° C | 99% | 1006.8 hPa | 0 mm | - | 604 W/m² | - |
| 1777556758 | 11.11° C | 99% | 1006.8 hPa | 0 mm | - | 517 W/m² | - |
| 1777556456 | 10.56° C | 99% | 1006.9 hPa | 0 mm | - | 159 W/m² | - |
| 1777556155 | 10° C | 99% | 1007 hPa | 0 mm | - | 259 W/m² | - |
| 1777555851 | 10.56° C | 99% | 1006.9 hPa | 0 mm | - | 252 W/m² | - |
| 1777555547 | 10.56° C | 99% | 1006.9 hPa | 0 mm | - | 213 W/m² | - |
| 1777555244 | 10° C | 99% | 1007 hPa | 0 mm | - | 234 W/m² | - |
| 1777554940 | 10° C | 99% | 1007.2 hPa | 0 mm | - | 199 W/m² | - |
* Rain latest hour (hover to see other rain measurements)
** Current wind speed in m/s (hover to see current wind gust speed)